createdAt,value
2022-08-25T00:02:03.211Z,2.50
2022-08-25T00:04:31.662Z,2.47
2022-08-25T00:07:03.121Z,2.67
2022-08-25T00:09:31.647Z,3.50
2022-08-25T00:11:59.097Z,2.50
2022-08-25T00:14:35.278Z,2.60
2022-08-25T00:17:02.393Z,2.23
2022-08-25T00:19:32.273Z,2.53
2022-08-25T00:21:59.466Z,2.90
2022-08-25T00:24:26.893Z,2.40
2022-08-25T00:26:56.493Z,2.87
2022-08-25T00:29:26.215Z,3.50
2022-08-25T00:31:54.572Z,2.13
2022-08-25T00:34:25.693Z,2.10
2022-08-25T00:36:53.024Z,2.23
2022-08-25T00:39:22.063Z,2.50
2022-08-25T00:41:51.163Z,2.97
2022-08-25T00:44:18.969Z,3.40
2022-08-25T00:46:53.676Z,2.90
2022-08-25T00:49:25.366Z,3.17
2022-08-25T00:52:11.342Z,3.20
2022-08-25T00:54:42.982Z,3.03
2022-08-25T00:57:11.501Z,2.13
2022-08-25T00:59:38.212Z,2.87
2022-08-25T01:02:07.867Z,2.67
2022-08-25T01:04:37.787Z,2.70
2022-08-25T01:07:05.432Z,2.30
2022-08-25T01:09:32.902Z,2.53
2022-08-25T01:12:01.313Z,3.10
2022-08-25T01:14:31.610Z,3.00
2022-08-25T01:16:59.550Z,2.67
2022-08-25T01:19:28.838Z,2.40
2022-08-25T01:21:56.073Z,2.97
2022-08-25T01:24:55.051Z,2.67
2022-08-25T01:27:21.833Z,2.80
2022-08-25T01:29:49.347Z,3.13
2022-08-25T01:32:16.157Z,2.93
2022-08-25T01:34:45.093Z,2.53
2022-08-25T01:37:14.052Z,2.93
2022-08-25T01:39:42.156Z,3.10
2022-08-25T01:42:47.233Z,2.67
2022-08-25T01:45:14.532Z,2.77
2022-08-25T01:47:41.310Z,2.57
2022-08-25T01:50:08.293Z,2.30
2022-08-25T01:52:51.218Z,2.07
2022-08-25T01:55:18.698Z,2.80
2022-08-25T01:57:45.552Z,2.47
2022-08-25T02:00:14.603Z,2.60
2022-08-25T02:02:42.895Z,2.53
2022-08-25T02:05:13.333Z,2.87
2022-08-25T02:07:40.754Z,2.93
2022-08-25T02:10:07.922Z,2.70
2022-08-25T02:12:36.561Z,2.30
2022-08-25T02:15:05.721Z,2.80
2022-08-25T02:17:32.476Z,2.50
2022-08-25T02:19:59.581Z,2.23
2022-08-25T02:22:26.762Z,2.30
2022-08-25T02:24:53.690Z,3.10
2022-08-25T02:27:20.391Z,3.20
2022-08-25T02:29:47.478Z,2.33
2022-08-25T02:32:14.301Z,2.30
2022-08-25T02:34:41.679Z,2.47
2022-08-25T02:37:08.762Z,2.50
2022-08-25T02:39:35.969Z,2.10
2022-08-25T02:42:03.542Z,2.73
2022-08-25T02:44:31.867Z,3.73
2022-08-25T02:46:58.943Z,2.13
2022-08-25T02:49:25.692Z,2.90
2022-08-25T02:51:52.622Z,2.47
2022-08-25T02:54:19.333Z,3.60
2022-08-25T02:56:46.122Z,2.70
2022-08-25T02:59:12.831Z,2.50
2022-08-25T03:01:39.610Z,2.60
2022-08-25T03:04:07.322Z,2.87
2022-08-25T03:06:34.281Z,2.80
2022-08-25T03:09:01.604Z,2.93
2022-08-25T03:11:28.697Z,2.80
2022-08-25T03:13:56.580Z,3.20
2022-08-25T03:16:27.888Z,2.83
2022-08-25T03:18:54.982Z,2.30
2022-08-25T03:21:22.721Z,2.23
2022-08-25T03:23:49.491Z,2.40
2022-08-25T03:26:42.513Z,2.50
2022-08-25T03:29:10.560Z,2.67
2022-08-25T03:31:38.267Z,3.60
2022-08-25T03:34:05.522Z,3.73
2022-08-25T03:36:32.301Z,3.00
2022-08-25T03:39:00.414Z,3.20
2022-08-25T03:41:29.931Z,2.70
2022-08-25T03:43:57.472Z,3.07
2022-08-25T03:46:35.598Z,3.10
2022-08-25T03:49:04.784Z,3.07
2022-08-25T03:51:37.423Z,3.40
2022-08-25T03:54:05.039Z,3.73
2022-08-25T03:56:31.822Z,2.90
2022-08-25T03:58:58.789Z,3.47
2022-08-25T04:01:26.444Z,2.97
2022-08-25T04:03:53.542Z,2.93
2022-08-25T04:06:20.638Z,3.17
2022-08-25T04:08:47.792Z,3.70
2022-08-25T04:11:19.833Z,3.13
2022-08-25T04:13:47.601Z,3.33
2022-08-25T04:16:16.546Z,3.37
2022-08-25T04:18:43.468Z,3.43
2022-08-25T04:21:11.224Z,4.13
2022-08-25T04:23:40.664Z,3.73
2022-08-25T04:26:11.905Z,4.47
2022-08-25T04:28:38.879Z,3.40
2022-08-25T04:31:09.809Z,2.50
2022-08-25T04:33:37.252Z,2.90
2022-08-25T04:36:10.038Z,2.97
2022-08-25T04:38:39.964Z,4.53
2022-08-25T04:41:08.190Z,3.27
2022-08-25T04:43:35.510Z,4.10
2022-08-25T04:46:11.296Z,4.00
2022-08-25T04:48:39.994Z,4.70
2022-08-25T04:51:07.635Z,5.00
2022-08-25T04:53:34.953Z,5.57
2022-08-25T04:56:03.811Z,4.97
2022-08-25T04:58:30.870Z,3.90
2022-08-25T05:01:08.776Z,4.23
2022-08-25T05:03:36.124Z,3.93
2022-08-25T05:06:03.652Z,3.57
2022-08-25T05:08:31.427Z,4.57
2022-08-25T05:10:58.767Z,4.30
2022-08-25T05:13:26.238Z,6.97
2022-08-25T05:15:58.400Z,6.00
2022-08-25T05:18:30.433Z,6.83
2022-08-25T05:21:01.364Z,6.40
2022-08-25T05:23:28.181Z,7.50
2022-08-25T05:25:54.890Z,5.60
2022-08-25T05:28:21.831Z,4.70
2022-08-25T05:30:51.257Z,5.40
2022-08-25T05:33:18.537Z,4.60
2022-08-25T05:35:45.223Z,5.37
2022-08-25T05:38:15.594Z,4.30
2022-08-25T05:40:42.684Z,4.90
2022-08-25T05:43:10.510Z,5.03
2022-08-25T05:45:37.343Z,5.33
2022-08-25T05:48:04.235Z,5.57
2022-08-25T05:50:30.995Z,7.97
2022-08-25T05:52:57.650Z,8.60
2022-08-25T05:55:24.434Z,10.13
2022-08-25T05:57:51.258Z,7.77
2022-08-25T06:00:18.891Z,9.97
2022-08-25T06:02:46.942Z,10.93
2022-08-25T06:05:21.720Z,11.93
2022-08-25T06:07:50.912Z,11.17
2022-08-25T06:10:20.382Z,9.37
2022-08-25T06:12:47.600Z,9.53
2022-08-25T06:15:21.659Z,9.80
2022-08-25T06:17:49.300Z,9.43
2022-08-25T06:20:22.041Z,6.97
2022-08-25T06:22:52.478Z,6.70
2022-08-25T06:25:21.842Z,6.10
2022-08-25T06:27:49.042Z,6.90
2022-08-25T06:30:24.042Z,7.73
2022-08-25T06:32:52.153Z,7.23
2022-08-25T06:35:19.845Z,6.90
2022-08-25T06:37:47.107Z,14.57
2022-08-25T06:40:15.998Z,17.20
2022-08-25T06:42:42.853Z,16.00
2022-08-25T06:45:10.195Z,15.10
2022-08-25T06:47:37.533Z,13.37
2022-08-25T06:50:05.098Z,14.30
2022-08-25T06:52:32.143Z,14.50
2022-08-25T06:54:58.970Z,16.60
2022-08-25T06:57:25.800Z,11.23
2022-08-25T06:59:53.723Z,11.57
2022-08-25T07:02:21.864Z,8.50
2022-08-25T07:04:49.338Z,9.10
2022-08-25T07:07:16.139Z,7.67
2022-08-25T07:09:43.150Z,11.30
2022-08-25T07:12:09.964Z,8.87
2022-08-25T07:14:37.097Z,10.07
2022-08-25T07:17:10.461Z,8.13
2022-08-25T07:19:40.936Z,7.83
2022-08-25T07:22:09.357Z,7.80
2022-08-25T07:24:36.323Z,8.70
2022-08-25T07:27:03.213Z,8.90
2022-08-25T07:29:32.678Z,10.20
2022-08-25T07:32:03.854Z,10.50
2022-08-25T07:34:52.288Z,9.40
2022-08-25T07:37:38.338Z,10.10
2022-08-25T07:40:08.823Z,11.97
2022-08-25T07:42:36.184Z,10.80
2022-08-25T07:45:07.339Z,10.17
2022-08-25T07:47:34.899Z,10.83
2022-08-25T07:50:01.963Z,11.70
2022-08-25T07:52:28.833Z,10.40
2022-08-25T07:54:55.973Z,9.87
2022-08-25T07:57:24.811Z,12.23
2022-08-25T07:59:51.641Z,9.10
2022-08-25T08:02:19.505Z,7.67
2022-08-25T08:04:51.118Z,9.00
2022-08-25T08:07:24.003Z,7.90
2022-08-25T08:10:33.223Z,6.90
2022-08-25T08:12:57.065Z,8.07
2022-08-25T08:15:24.020Z,6.70
2022-08-25T08:17:52.788Z,6.70
2022-08-25T08:20:23.239Z,5.40
2022-08-25T08:22:50.603Z,5.30
2022-08-25T08:25:21.173Z,6.20
2022-08-25T08:27:49.083Z,4.50
2022-08-25T08:30:16.737Z,4.87
2022-08-25T08:33:08.661Z,4.40
2022-08-25T08:35:30.802Z,4.70
2022-08-25T08:37:57.580Z,3.90
2022-08-25T08:40:24.645Z,4.40
2022-08-25T08:43:07.148Z,4.43
2022-08-25T08:45:54.015Z,4.30
2022-08-25T08:48:45.225Z,5.23
2022-08-25T08:51:35.196Z,4.93
2022-08-25T08:54:20.580Z,4.30
2022-08-25T08:56:51.183Z,4.00
2022-08-25T08:59:28.879Z,4.20
2022-08-25T09:02:02.016Z,4.13
2022-08-25T09:04:44.539Z,4.63
2022-08-25T09:07:23.340Z,4.00
2022-08-25T09:09:52.253Z,4.50
2022-08-25T09:12:34.811Z,4.00
2022-08-25T09:15:19.818Z,4.53
2022-08-25T09:18:15.995Z,6.80
2022-08-25T09:20:48.780Z,5.20
2022-08-25T09:23:40.939Z,4.50
2022-08-25T09:26:29.450Z,3.70
2022-08-25T09:29:21.577Z,4.40
2022-08-25T09:31:48.879Z,4.33
2022-08-25T09:34:25.088Z,4.23
2022-08-25T09:36:53.518Z,4.37
2022-08-25T09:39:21.143Z,5.17
2022-08-25T09:41:56.143Z,4.20
2022-08-25T09:44:36.404Z,5.10
2022-08-25T09:47:15.551Z,4.20
2022-08-25T09:49:49.476Z,4.30
2022-08-25T09:52:28.792Z,4.53
2022-08-25T09:54:57.348Z,5.10
2022-08-25T09:57:35.910Z,4.73
2022-08-25T10:00:17.101Z,4.60
2022-08-25T10:02:47.200Z,5.20
2022-08-25T10:05:19.378Z,5.40
2022-08-25T10:08:00.247Z,4.60
2022-08-25T10:10:35.312Z,4.80
2022-08-25T10:13:06.135Z,5.00
2022-08-25T10:15:36.439Z,4.60
2022-08-25T10:18:26.155Z,4.97
2022-08-25T10:21:14.844Z,4.70
2022-08-25T10:23:51.682Z,6.30
2022-08-25T10:26:47.822Z,5.53
2022-08-25T10:29:37.759Z,5.20
2022-08-25T10:32:12.250Z,5.27
2022-08-25T10:34:51.875Z,6.30
2022-08-25T10:37:44.260Z,5.70
2022-08-25T10:40:54.649Z,5.37
2022-08-25T10:43:27.632Z,5.43
2022-08-25T10:46:10.602Z,5.77
2022-08-25T10:48:50.538Z,6.27
2022-08-25T10:51:37.404Z,5.67
2022-08-25T10:54:13.120Z,7.00
2022-08-25T10:56:53.066Z,5.20
2022-08-25T10:59:35.662Z,6.37
2022-08-25T11:02:41.484Z,5.43
2022-08-25T11:05:08.421Z,6.20
2022-08-25T11:07:38.951Z,5.60
2022-08-25T11:10:10.600Z,5.23
2022-08-25T11:12:47.549Z,5.07
2022-08-25T11:15:23.262Z,4.93
2022-08-25T11:18:03.733Z,5.20
2022-08-25T11:20:39.029Z,5.27
2022-08-25T11:23:12.562Z,5.33
2022-08-25T11:25:44.782Z,5.37
2022-08-25T11:28:31.742Z,5.30
2022-08-25T11:31:01.012Z,5.00
2022-08-25T11:33:30.558Z,5.53
2022-08-25T11:36:33.752Z,5.03
2022-08-25T11:39:05.178Z,5.40
2022-08-25T11:41:51.112Z,5.33
2022-08-25T11:44:38.272Z,4.57
2022-08-25T11:47:28.667Z,5.43
2022-08-25T11:50:02.172Z,5.37
2022-08-25T11:52:35.115Z,4.83
2022-08-25T11:55:15.103Z,5.33
2022-08-25T11:57:43.302Z,4.87
2022-08-25T12:00:20.741Z,4.67
2022-08-25T12:02:50.614Z,5.33
2022-08-25T12:05:17.608Z,5.30
2022-08-25T12:07:47.271Z,4.97
2022-08-25T12:10:22.613Z,4.93
2022-08-25T12:12:49.530Z,4.20
2022-08-25T12:15:32.741Z,5.40
2022-08-25T12:18:24.573Z,5.30
2022-08-25T12:21:12.502Z,4.90
2022-08-25T12:23:44.916Z,4.90
2022-08-25T12:26:23.960Z,4.77
2022-08-25T12:29:21.379Z,5.37
2022-08-25T12:32:04.289Z,4.80
2022-08-25T12:34:38.387Z,5.10
2022-08-25T12:37:13.380Z,6.00
2022-08-25T12:39:47.148Z,5.77
2022-08-25T12:42:29.644Z,5.00
2022-08-25T12:45:14.291Z,4.67
2022-08-25T12:47:44.990Z,5.40
2022-08-25T12:50:40.992Z,5.30
2022-08-25T12:53:35.395Z,4.90
2022-08-25T12:56:17.480Z,5.20
2022-08-25T12:59:12.611Z,4.47
2022-08-25T13:02:08.140Z,4.43
2022-08-25T13:05:05.580Z,5.23
2022-08-25T13:08:04.811Z,4.27
2022-08-25T13:10:48.510Z,5.00
2022-08-25T13:13:44.781Z,4.40
2022-08-25T13:16:29.594Z,5.60
2022-08-25T13:18:59.644Z,5.10
2022-08-25T13:21:41.682Z,4.90
2022-08-25T13:24:24.939Z,4.80
2022-08-25T13:26:58.218Z,5.13
2022-08-25T13:29:35.096Z,5.37
2022-08-25T13:32:12.660Z,5.53
2022-08-25T13:34:42.787Z,5.33
2022-08-25T13:37:29.526Z,5.40
2022-08-25T13:40:24.805Z,5.33
2022-08-25T13:42:59.569Z,5.87
2022-08-25T13:45:31.968Z,6.33
2022-08-25T13:47:59.081Z,5.37
2022-08-25T13:50:26.359Z,6.30
2022-08-25T13:52:58.941Z,5.27
2022-08-25T13:55:50.407Z,5.03
2022-08-25T13:58:24.374Z,4.60
2022-08-25T14:01:48.993Z,4.40
2022-08-25T14:04:32.889Z,5.67
2022-08-25T14:07:13.018Z,6.00
2022-08-25T14:09:46.767Z,5.23
2022-08-25T14:15:10.678Z,4.17
2022-08-25T14:17:40.877Z,4.07
2022-08-25T14:20:20.648Z,3.43
2022-08-25T14:22:50.181Z,4.23
2022-08-25T14:25:17.119Z,3.07
2022-08-25T14:28:06.391Z,3.00
2022-08-25T14:30:35.010Z,3.47
2022-08-25T14:33:02.669Z,2.90
2022-08-25T14:35:29.797Z,2.37
2022-08-25T14:37:58.348Z,3.10
2022-08-25T14:40:25.234Z,1.87
2022-08-25T14:42:52.119Z,2.30
2022-08-25T14:45:19.697Z,2.90
2022-08-25T14:47:48.378Z,2.40
2022-08-25T14:50:17.408Z,3.00
2022-08-25T14:52:47.090Z,2.43
2022-08-25T14:55:13.888Z,2.20
2022-08-25T14:57:57.606Z,2.43
2022-08-25T15:00:25.858Z,2.17
2022-08-25T15:02:53.257Z,2.13
2022-08-25T15:05:24.868Z,2.40
2022-08-25T15:08:12.292Z,3.13
2022-08-25T15:10:40.369Z,2.80
2022-08-25T15:13:07.400Z,2.33
2022-08-25T15:15:38.311Z,2.90
2022-08-25T15:18:05.678Z,2.30
2022-08-25T15:20:33.030Z,2.90
2022-08-25T15:23:00.057Z,2.10
2022-08-25T15:25:27.549Z,2.13
2022-08-25T15:27:54.425Z,2.60
2022-08-25T15:30:21.730Z,2.90
2022-08-25T15:32:57.767Z,3.90
2022-08-25T15:35:29.143Z,3.40
2022-08-25T15:37:56.198Z,3.40
2022-08-25T15:40:23.164Z,3.67
2022-08-25T15:42:50.069Z,3.70
2022-08-25T15:45:17.099Z,2.73
2022-08-25T15:47:45.109Z,4.07
2022-08-25T15:50:14.982Z,3.37
2022-08-25T15:52:46.477Z,3.53
2022-08-25T15:55:15.389Z,4.00
2022-08-25T15:57:42.575Z,3.63
2022-08-25T16:00:12.079Z,4.00
2022-08-25T16:02:40.756Z,3.37
2022-08-25T16:05:09.073Z,4.53
2022-08-25T16:07:35.950Z,4.17
2022-08-25T16:10:04.239Z,4.40
2022-08-25T16:12:31.742Z,4.93
2022-08-25T16:14:58.669Z,4.07
2022-08-25T16:17:26.831Z,3.73
2022-08-25T16:19:53.658Z,4.53
2022-08-25T16:22:20.532Z,4.63
2022-08-25T16:24:48.068Z,3.70
2022-08-25T16:27:15.308Z,4.43
2022-08-25T16:29:44.041Z,4.50
2022-08-25T16:32:13.380Z,5.90
2022-08-25T16:34:41.016Z,4.97
2022-08-25T16:37:08.726Z,5.77
2022-08-25T16:39:36.136Z,5.30
2022-08-25T16:42:06.874Z,5.23
2022-08-25T16:44:34.558Z,4.60
2022-08-25T16:47:01.616Z,4.13
2022-08-25T16:49:28.578Z,4.27
2022-08-25T16:51:57.260Z,4.30
2022-08-25T16:54:44.085Z,4.37
2022-08-25T16:57:11.133Z,5.33
2022-08-25T16:59:38.021Z,5.50
2022-08-25T17:02:06.609Z,4.67
2022-08-25T17:04:33.530Z,5.20
2022-08-25T17:07:00.549Z,5.47
2022-08-25T17:09:29.711Z,4.50
2022-08-25T17:11:57.398Z,5.00
2022-08-25T17:14:24.538Z,4.93
2022-08-25T17:16:54.781Z,3.97
2022-08-25T17:19:23.752Z,5.03
2022-08-25T17:21:51.337Z,5.83
2022-08-25T17:24:18.279Z,5.40
2022-08-25T17:26:47.320Z,5.17
2022-08-25T17:29:17.435Z,5.73
2022-08-25T17:31:46.364Z,6.93
2022-08-25T17:34:16.755Z,5.63
2022-08-25T17:36:47.104Z,5.80
2022-08-25T17:39:18.318Z,5.07
2022-08-25T17:41:45.279Z,7.10
2022-08-25T17:44:13.088Z,5.03
2022-08-25T17:46:47.209Z,6.30
2022-08-25T17:49:15.513Z,6.03
2022-08-25T17:51:42.643Z,6.67
2022-08-25T17:54:09.671Z,7.30
2022-08-25T17:56:37.801Z,7.07
2022-08-25T17:59:04.577Z,6.60
2022-08-25T18:01:33.396Z,6.50
2022-08-25T18:04:00.525Z,7.30
2022-08-25T18:06:29.659Z,7.20
2022-08-25T18:08:59.936Z,6.33
2022-08-25T18:11:28.877Z,6.67
2022-08-25T18:13:57.261Z,6.30
2022-08-25T18:16:24.649Z,6.43
2022-08-25T18:18:51.751Z,7.57
2022-08-25T18:21:20.729Z,7.70
2022-08-25T18:23:49.475Z,6.63
2022-08-25T18:26:16.277Z,6.63
2022-08-25T18:28:43.884Z,7.27
2022-08-25T18:31:13.125Z,7.40
2022-08-25T18:33:42.225Z,6.47
2022-08-25T18:36:10.189Z,7.00
2022-08-25T18:38:57.947Z,6.97
2022-08-25T18:41:26.497Z,7.40
2022-08-25T18:43:53.432Z,7.33
2022-08-25T18:46:22.688Z,6.10
2022-08-25T18:48:49.973Z,6.60
2022-08-25T18:51:23.032Z,7.37
2022-08-25T18:53:50.993Z,6.93
2022-08-25T18:56:19.167Z,7.77
2022-08-25T18:58:47.707Z,6.90
2022-08-25T19:01:16.175Z,6.57
2022-08-25T19:03:44.503Z,7.23
2022-08-25T19:06:11.496Z,7.43
2022-08-25T19:08:41.915Z,6.40
2022-08-25T19:11:10.021Z,6.07
2022-08-25T19:13:37.792Z,6.90
2022-08-25T19:16:12.539Z,8.30
2022-08-25T19:18:41.623Z,7.37
2022-08-25T19:21:08.845Z,6.27
2022-08-25T19:23:38.238Z,7.47
2022-08-25T19:26:14.019Z,6.20
2022-08-25T19:28:45.746Z,6.10
2022-08-25T19:31:15.537Z,6.30
2022-08-25T19:33:46.151Z,6.33
2022-08-25T19:36:13.665Z,6.40
2022-08-25T19:38:41.291Z,6.00
2022-08-25T19:41:10.420Z,6.60
2022-08-25T19:43:55.713Z,6.23
2022-08-25T19:46:33.161Z,5.43
2022-08-25T19:49:21.517Z,6.80
2022-08-25T19:51:51.379Z,6.10
2022-08-25T19:54:24.666Z,6.57
2022-08-25T19:56:54.755Z,6.57
2022-08-25T19:59:25.428Z,6.10
2022-08-25T20:01:52.760Z,7.73
2022-08-25T20:04:20.132Z,7.03
2022-08-25T20:06:48.310Z,6.57
2022-08-25T20:09:35.732Z,6.23
2022-08-25T20:12:02.985Z,6.90
2022-08-25T20:14:29.819Z,6.37
2022-08-25T20:16:56.480Z,5.90
2022-08-25T20:19:23.128Z,6.43
2022-08-25T20:21:49.869Z,5.77
2022-08-25T20:24:35.388Z,6.93
2022-08-25T20:27:03.611Z,6.33
2022-08-25T20:29:31.183Z,7.13
2022-08-25T20:31:58.911Z,6.17
2022-08-25T20:34:28.589Z,6.13
2022-08-25T20:36:55.709Z,6.40
2022-08-25T20:39:22.847Z,7.03
2022-08-25T20:41:49.521Z,6.10
2022-08-25T20:44:17.373Z,6.30
2022-08-25T20:46:44.668Z,7.50
2022-08-25T20:49:11.862Z,6.80
2022-08-25T20:51:38.818Z,6.80
2022-08-25T20:54:05.625Z,7.53
2022-08-25T20:56:32.443Z,6.27
2022-08-25T20:58:59.728Z,7.07
2022-08-25T21:01:42.330Z,6.33
2022-08-25T21:04:11.549Z,7.80
2022-08-25T21:06:41.531Z,6.80
2022-08-25T21:09:14.188Z,7.17
2022-08-25T21:11:42.800Z,7.17
2022-08-25T21:14:10.000Z,6.67
2022-08-25T21:16:37.998Z,6.27
2022-08-25T21:19:09.043Z,7.00
2022-08-25T21:21:38.679Z,7.17
2022-08-25T21:24:09.800Z,6.43
2022-08-25T21:26:37.623Z,6.30
2022-08-25T21:29:15.410Z,6.67
2022-08-25T21:31:42.625Z,6.50
2022-08-25T21:34:10.941Z,7.57
2022-08-25T21:36:39.098Z,6.30
2022-08-25T21:39:05.767Z,6.53
2022-08-25T21:41:34.156Z,6.87
2022-08-25T21:44:04.539Z,5.70
2022-08-25T21:46:32.984Z,6.90
2022-08-25T21:49:01.325Z,7.20
2022-08-25T21:51:40.829Z,6.80
2022-08-25T21:54:10.946Z,6.80
2022-08-25T21:56:40.911Z,6.47
2022-08-25T21:59:15.043Z,6.83
2022-08-25T22:01:42.620Z,6.97
2022-08-25T22:04:10.528Z,7.07
2022-08-25T22:06:38.638Z,5.87
2022-08-25T22:09:06.980Z,7.23
2022-08-25T22:11:36.169Z,5.73
2022-08-25T22:14:05.579Z,7.10
2022-08-25T22:16:35.059Z,6.67
2022-08-25T22:19:03.257Z,7.03
2022-08-25T22:21:30.052Z,6.50
2022-08-25T22:23:58.334Z,7.30
2022-08-25T22:26:29.144Z,7.10
2022-08-25T22:28:57.329Z,6.50
2022-08-25T22:31:24.560Z,6.47
2022-08-25T22:33:52.098Z,5.70
2022-08-25T22:36:24.747Z,6.10
2022-08-25T22:38:53.016Z,6.13
2022-08-25T22:41:21.358Z,6.30
2022-08-25T22:43:49.173Z,6.20
2022-08-25T22:46:15.924Z,7.13
2022-08-25T22:48:44.453Z,5.80
2022-08-25T22:51:18.571Z,6.97
2022-08-25T22:53:47.257Z,6.50
2022-08-25T22:56:17.174Z,7.00
2022-08-25T22:58:51.526Z,6.63
2022-08-25T23:01:20.150Z,6.80
2022-08-25T23:03:47.619Z,6.03
2022-08-25T23:06:22.129Z,6.30
2022-08-25T23:08:53.833Z,5.93
2022-08-25T23:11:23.564Z,6.17
2022-08-25T23:13:51.080Z,6.57
2022-08-25T23:16:18.069Z,6.30
2022-08-25T23:18:46.949Z,7.00
2022-08-25T23:21:37.957Z,5.93
2022-08-25T23:24:08.909Z,6.57
2022-08-25T23:26:38.184Z,6.83
2022-08-25T23:29:18.603Z,6.80
2022-08-25T23:31:46.943Z,6.87
2022-08-25T23:34:15.708Z,5.60
2022-08-25T23:36:43.864Z,4.87
2022-08-25T23:39:11.195Z,5.57
2022-08-25T23:41:37.989Z,5.80
2022-08-25T23:44:09.345Z,5.07
2022-08-25T23:46:39.520Z,5.17
2022-08-25T23:49:08.183Z,6.63
2022-08-25T23:51:37.140Z,6.10
2022-08-25T23:54:09.648Z,6.93
2022-08-25T23:56:44.790Z,6.03
2022-08-25T23:59:19.569Z,5.80
